Latest Weather Observations for Melbourne Airport

IDV60801

Issued at 4:02 pm EDT Monday 30 March 2020 (issued every 10 minutes, with the page automatically refreshed every 10 minutes)

About weather observations | Map of weather stations | Latest weather observations for VIC | Other Formats
Station Details ID: 086282 Name: MELBOURNE AIRPORT Lat: -37.67 Lon: 144.83 Height: 113.4 m
Data from the previous 72 hours. | See also: Recent months at Melbourne Airport
Date/Time
EDT
Temp
°C
App
Temp
°C
Dew
Point
°C
Rel
Hum
%
Delta-T
°C
Wind Press
QNH
hPa
Press
MSL
hPa
Rain since
9am
mm
Dir  Spd
km/h
Gust
km/h
Spd
kts
Gust
kts
30/03:30pm 20.6 17.2 6.1 39 7.3 SSW 13 19 7 10 1013.3 1013.0 0.0
30/03:00pm 20.1 16.5 6.7 41 6.8 SSW 15 20 8 11 1013.3 1013.0 0.0
30/02:30pm 20.7 17.5 6.8 40 7.1 WSW 13 20 7 11 1013.5 1013.2 0.0
30/02:00pm 20.4 17.6 6.9 41 6.9 SW 11 17 6 9 1013.6 1013.3 0.0
30/01:30pm 19.6 17.6 8.5 48 5.8 W 9 17 5 9 1013.6 1013.3 0.0
30/01:00pm 19.1 16.2 8.1 49 5.7 SW 13 17 7 9 1013.7 1013.4 0.0
30/12:30pm 19.1 16.2 8.3 49 5.6 W 13 19 7 10 1014.0 1013.7 0.0
30/12:00pm 18.8 14.5 7.9 49 5.6 W 20 28 11 15 1014.2 1013.9 0.0
30/11:30am 19.2 15.2 8.9 51 5.4 WSW 20 30 11 16 1014.3 1014.0 0.0
30/11:00am 18.1 14.3 9.8 58 4.4 WSW 20 26 11 14 1014.4 1014.1 0.0
30/10:30am 17.0 13.1 9.4 61 4.0 WSW 20 28 11 15 1014.4 1014.1 0.0
30/10:00am 17.1 13.4 10.1 63 3.7 WSW 20 28 11 15 1013.9 1013.6 0.0
30/09:30am 16.1 13.4 10.5 69 3.0 W 15 20 8 11 1013.7 1013.4 0.0
30/09:00am 15.4 13.3 11.3 76 2.2 WNW 13 15 7 8 1013.4 1013.1 3.6
30/08:30am 15.2 13.1 11.3 77 2.1 WNW 13 17 7 9 1013.1 1012.8 3.6
30/08:00am 14.8 14.1 13.2 90 0.9 WNW 9 15 5 8 1012.9 1012.6 3.6
30/07:30am 14.6 13.9 13.3 92 0.7 NNW 9 11 5 6 1012.6 1012.3 3.6
30/07:00am 14.4 15.5 13.5 94 0.5 CALM 0 0 0 0 1012.1 1011.8 3.6
30/06:30am 14.1 15.1 13.2 94 0.5 CALM 0 0 0 0 1011.8 1011.5 3.6
30/06:00am 14.8 15.8 13.2 90 0.9 CALM 0 6 0 3 1011.4 1011.1 3.6
30/05:30am 14.6 13.9 13.3 92 0.7 N 9 9 5 5 1011.3 1011.0 3.6
30/05:00am 14.7 14.7 13.5 92 0.7 WNW 6 7 3 4 1011.3 1011.0 3.6
30/04:30am 14.4 14.0 13.1 92 0.7 WNW 7 9 4 5 1011.4 1011.1 3.6
30/04:00am 13.9 13.4 12.6 92 0.7 WNW 7 9 4 5 1011.5 1011.2 3.6
30/03:30am 14.5 13.8 13.1 91 0.8 WNW 9 9 5 5 1011.5 1011.2 3.6
30/03:00am 15.0 16.0 13.2 89 1.0 CALM 0 0 0 0 1011.5 1011.2 3.6
30/02:30am 14.3 14.0 13.2 93 0.6 WNW 7 9 4 5 1011.8 1011.5 3.6
30/02:00am 14.2 13.0 12.9 92 0.7 WNW 11 13 6 7 1012.1 1011.8 3.6
30/01:30am 14.0 12.4 12.7 92 0.7 WNW 13 15 7 8 1012.2 1011.9 3.6
30/01:00am 14.9 13.2 13.5 91 0.8 W 15 19 8 10 1012.2 1011.9 3.6
30/12:30am 15.9 13.0 14.0 88 1.1 W 22 26 12 14 1012.3 1012.0 3.6
30/12:00am 17.5 14.2 14.0 80 2.0 NW 24 32 13 17 1011.9 1011.6 3.6
 
Date/Time
EDT
Temp
°C
App
Temp
°C
Dew
Point
°C
Rel
Hum
%
Delta-T
°C
Wind Press
QNH
hPa
Press
MSL
hPa
Rain since
9am
mm
Dir  Spd
km/h
Gust
km/h
Spd
kts
Gust
kts
29/11:30pm 17.6 14.5 15.7 89 1.1 N 26 33 14 18 1011.5 1011.2 3.6
29/11:00pm 17.4 13.2 15.7 90 1.0 N 32 37 17 20 1011.0 1010.7 3.6
29/10:30pm 17.7 12.9 15.7 88 1.2 N 35 41 19 22 1011.0 1010.7 3.6
29/10:00pm 17.9 13.0 15.4 85 1.5 N 35 41 19 22 1011.1 1010.8 3.6
29/09:30pm 17.9 12.9 15.0 83 1.7 N 35 41 19 22 1011.1 1010.8 3.6
29/09:00pm 17.8 13.5 14.5 81 1.9 N 30 37 16 20 1011.0 1010.7 3.6
29/08:30pm 18.1 13.4 14.3 78 2.2 N 32 37 17 20 1010.6 1010.3 3.6
29/08:00pm 18.3 13.9 14.1 76 2.4 N 30 37 16 20 1010.5 1010.2 3.6
29/07:30pm 18.5 13.8 14.4 77 2.4 N 32 39 17 21 1010.0 1009.7 3.6
29/07:00pm 19.6 15.6 14.1 70 3.2 N 28 32 15 17 1009.5 1009.2 3.6
29/06:30pm 20.1 17.9 14.5 70 3.3 NNE 19 28 10 15 1009.3 1009.0 3.6
29/06:00pm 20.4 18.0 14.4 68 3.5 NNE 20 28 11 15 1009.0 1008.7 3.6
29/05:30pm 20.2 16.7 14.6 70 3.3 NNE 26 33 14 18 1008.9 1008.6 3.6
29/05:00pm 19.4 18.1 15.7 79 2.2 ENE 17 24 9 13 1009.0 1008.7 3.6
29/04:30pm 17.9 16.2 14.8 82 1.8 N 17 26 9 14 1009.3 1009.0 3.6
29/04:00pm 17.8 15.4 14.5 81 1.9 NE 20 33 11 18 1009.4 1009.1 3.4
29/03:30pm 17.1 15.3 14.5 85 1.5 NW 17 22 9 12 1011.0 1010.7 2.6
29/03:06pm 17.1 12.1 14.1 82 1.7 W 33 48 18 26 1011.5 1011.2 1.0
29/03:00pm 17.8 12.8 13.4 75 2.5 W 32 48 17 26 1012.0 1011.7 0.2
29/02:48pm 20.2 15.3 11.4 57 4.9 NW 28 56 15 30 1012.0 1011.7 0.0
29/02:30pm 21.8 16.1 13.1 57 5.0 NNE 35 44 19 24 1010.8 1010.5 0.0
29/02:00pm 22.9 16.2 12.2 51 6.1 NNE 39 52 21 28 1010.5 1010.2 0.0
29/01:30pm 23.0 15.8 11.9 49 6.3 NNE 41 52 22 28 1011.0 1010.7 0.0
29/01:05pm 24.1 17.2 11.6 45 7.1 NNE 39 57 21 31 1011.0 1010.7 0.0
29/01:00pm 24.1 16.2 11.6 45 7.1 NNE 44 57 24 31 1011.2 1010.9 0.0
29/12:30pm 24.7 16.8 11.5 43 7.5 NNE 44 56 24 30 1011.8 1011.5 0.0
29/12:02pm 24.1 18.0 11.6 45 7.1 NNE 35 54 19 29 1012.3 1012.0 0.0
29/12:00pm 23.8 17.2 11.2 45 7.1 N 37 54 20 29 1012.2 1011.9 0.0
29/11:30am 23.8 15.3 10.7 43 7.3 N 46 67 25 36 1012.6 1012.3 0.0
29/11:22am 23.9 15.9 10.6 43 7.4 NNE 43 67 23 36 1012.6 1012.3 0.0
29/11:00am 23.7 15.2 10.6 43 7.3 N 46 63 25 34 1012.9 1012.6 0.0
29/10:30am 22.4 15.3 9.7 44 6.9 N 37 57 20 31 1013.3 1013.0 0.0
29/10:27am 22.6 16.3 9.8 44 7.0 N 33 52 18 28 1013.4 1013.1 0.0
29/10:00am 21.0 15.6 9.5 47 6.2 N 28 37 15 20 1013.7 1013.4 0.0
29/09:30am 19.9 13.9 8.7 48 5.9 N 30 37 16 20 1013.6 1013.3 0.0
29/09:00am 19.9 12.3 7.7 45 6.3 N 37 48 20 26 1013.4 1013.1 0.0
29/08:45am 19.9 12.1 8.4 47 6.0 N 39 57 21 31 1013.3 1013.0 0.0
29/08:30am 19.7 11.6 7.2 44 6.4 N 39 52 21 28 1013.1 1012.8 0.0
29/08:00am 19.8 11.7 6.8 42 6.6 N 39 57 21 31 1012.8 1012.5 0.0
29/07:30am 20.0 12.6 6.6 41 6.8 N 35 48 19 26 1012.9 1012.6 0.0
29/07:00am 19.9 10.9 6.4 41 6.8 N 43 56 23 30 1012.6 1012.3 0.0
29/06:37am 20.0 10.7 6.0 40 7.0 N 44 63 24 34 1012.7 1012.4 0.0
29/06:30am 20.0 10.4 6.3 41 6.9 NNE 46 61 25 33 1012.7 1012.4 0.0
29/06:00am 19.9 10.8 6.1 40 6.9 NNE 43 61 23 33 1012.5 1012.2 0.0
29/05:53am 20.0 10.9 6.0 40 7.0 NNE 43 61 23 33 1012.5 1012.2 0.0
29/05:30am 20.1 10.4 5.9 39 7.1 NNE 46 56 25 30 1012.6 1012.3 0.0
29/05:05am 20.1 11.0 5.9 39 7.1 N 43 61 23 33 1012.7 1012.4 0.0
29/05:00am 20.0 10.9 6.0 40 7.0 N 43 56 23 30 1012.8 1012.5 0.0
29/04:30am 19.7 12.1 5.6 39 7.0 N 35 46 19 25 1012.8 1012.5 0.0
29/04:00am 19.5 12.4 5.5 40 6.9 NNE 32 48 17 26 1013.1 1012.8 0.0
29/03:30am 19.8 11.7 5.2 38 7.2 NNE 37 48 20 26 1013.2 1012.9 0.0
29/03:00am 19.0 13.1 5.6 41 6.6 NNE 26 37 14 20 1013.7 1013.4 0.0
29/02:30am 19.4 12.7 5.7 40 6.8 NNE 30 41 16 22 1014.0 1013.7 0.0
29/02:00am 19.7 12.7 5.8 40 6.9 N 32 41 17 22 1014.2 1013.9 0.0
29/01:30am 20.0 12.4 6.0 40 7.0 N 35 43 19 23 1014.7 1014.4 0.0
29/01:27am 20.2 12.6 5.7 38 7.2 N 35 54 19 29 1014.8 1014.5 0.0
29/01:00am 20.2 13.0 6.0 39 7.1 NNE 33 41 18 22 1015.1 1014.8 0.0
29/12:30am 20.5 13.6 6.5 40 7.1 NNE 32 41 17 22 1015.4 1015.1 0.0
29/12:00am 20.8 14.3 6.6 39 7.2 N 30 37 16 20 1015.8 1015.5 0.0
 
Date/Time
EDT
Temp
°C
App
Temp
°C
Dew
Point
°C
Rel
Hum
%
Delta-T
°C
Wind Press
QNH
hPa
Press
MSL
hPa
Rain since
9am
mm
Dir  Spd
km/h
Gust
km/h
Spd
kts
Gust
kts
28/11:30pm 21.3 14.3 6.9 39 7.4 NNE 33 41 18 22 1016.1 1015.8 0.0
28/11:00pm 21.6 15.2 7.0 39 7.5 NNE 30 39 16 21 1016.2 1015.9 0.0
28/10:30pm 21.1 16.0 7.6 41 7.0 NNE 24 33 13 18 1016.3 1016.0 0.0
28/10:00pm 19.9 17.1 8.4 47 6.0 NNE 13 24 7 13 1016.4 1016.1 0.0
28/09:30pm 21.1 16.6 8.6 44 6.6 NE 22 30 12 16 1016.5 1016.3 0.0
28/09:00pm 21.5 17.6 8.7 44 6.8 NE 19 24 10 13 1016.5 1016.3 0.0
28/08:30pm 21.9 18.8 9.0 43 6.9 NE 15 19 8 10 1016.5 1016.3 0.0
28/08:00pm 22.7 18.6 8.7 40 7.5 NE 20 28 11 15 1016.3 1016.0 0.0
28/07:30pm 23.8 20.0 9.0 39 8.0 NE 19 26 10 14 1016.4 1016.1 0.0
28/07:00pm 24.9 20.4 8.6 35 8.8 NNE 22 32 12 17 1016.4 1016.1 0.0
28/06:30pm 24.9 19.4 9.1 36 8.6 NNE 28 39 15 21 1016.4 1016.1 0.0
28/06:00pm 26.1 20.9 8.9 33 9.4 NNE 26 39 14 21 1016.5 1016.3 0.0
28/05:30pm 26.5 21.3 9.0 33 9.6 NNE 26 35 14 19 1016.9 1016.7 0.0
28/05:00pm 26.5 20.3 9.5 34 9.4 NNE 32 39 17 21 1017.1 1016.9 0.0
28/04:30pm 26.9 21.7 10.1 34 9.4 NNE 28 37 15 20 1017.2 1017.0 0.0
28/04:02pm 26.7 21.0 9.8 34 9.4 NNE 30 48 16 26 1017.4 1017.2 0.0
28/04:00pm 26.9 20.8 9.9 34 9.5 NNE 32 48 17 26 1017.4 1017.2 0.0
28/03:30pm 27.4 21.6 10.9 35 9.4 NNE 32 48 17 26 1017.7 1017.5 0.0
28/03:10pm 26.4 20.2 10.1 36 9.1 NNE 33 52 18 28 1017.9 1017.7 0.0
28/03:00pm 27.4 21.1 10.9 35 9.4 NNE 35 50 19 27 1018.1 1017.8 0.0
28/02:30pm 26.7 19.9 10.8 37 9.0 NNE 37 50 20 27 1018.5 1018.2 0.0
28/02:00pm 26.3 19.6 10.9 38 8.7 NNE 37 48 20 26 1018.8 1018.5 0.0
28/01:30pm 25.3 18.4 10.4 39 8.3 NNE 37 52 20 28 1019.4 1019.1 0.0
28/01:00pm 25.6 17.8 11.1 40 8.2 NNE 43 54 23 29 1019.8 1019.5 0.0
28/12:34pm 24.6 17.4 10.6 41 7.8 NNE 39 57 21 31 1019.9 1019.6 0.0
28/12:30pm 24.2 17.0 10.5 42 7.6 N 39 54 21 29 1020.0 1019.7 0.0
28/12:00pm 23.3 15.7 10.4 44 7.1 N 41 56 22 30 1020.3 1020.0 0.0
28/11:30am 22.7 13.7 10.3 45 6.8 N 48 57 26 31 1020.7 1020.4 0.0
28/11:00am 22.0 13.3 10.1 46 6.5 NNE 46 59 25 32 1020.9 1020.6 0.0
28/10:30am 21.4 12.4 10.2 49 6.1 N 48 63 26 34 1021.0 1020.7 0.0
28/10:08am 20.8 12.7 9.9 49 5.9 NNE 43 61 23 33 1021.2 1020.9 0.0
28/10:00am 20.9 12.6 10.0 49 5.9 N 44 59 24 32 1021.1 1020.8 0.0
28/09:34am 20.1 12.7 9.9 52 5.5 NNE 39 59 21 32 1021.3 1021.0 0.0
28/09:30am 19.9 12.9 9.8 52 5.4 NNE 37 54 20 29 1021.3 1021.0 0.0
28/09:00am 19.1 13.4 9.7 54 5.0 NNE 30 39 16 21 1021.4 1021.1 0.0
28/08:30am 17.6 12.0 8.9 56 4.5 NNE 28 35 15 19 1021.3 1021.0 0.0
28/08:00am 17.2 11.5 8.4 56 4.5 NNE 28 37 15 20 1021.3 1021.0 0.0
28/07:30am 16.5 13.5 7.8 56 4.4 N 13 20 7 11 1021.2 1020.9 0.0
28/07:00am 16.6 11.7 6.9 52 4.8 N 22 30 12 16 1021.1 1020.8 0.0
28/06:30am 14.5 10.7 7.6 63 3.4 NNE 17 24 9 13 1021.2 1020.9 0.0
28/06:00am 14.5 10.7 7.6 63 3.4 NNE 17 19 9 10 1021.1 1020.8 0.0
28/05:30am 16.7 12.2 6.8 52 4.9 N 20 26 11 14 1021.2 1020.9 0.0
28/05:00am 15.1 11.7 7.7 61 3.7 N 15 17 8 9 1021.0 1020.7 0.0
28/04:30am 15.2 11.5 7.8 61 3.7 N 17 19 9 10 1020.8 1020.5 0.0
28/04:00am 14.6 11.7 8.2 65 3.2 N 13 17 7 9 1020.9 1020.6 0.0
28/03:30am 13.5 13.2 8.7 73 2.4 CALM 0 0 0 0 1021.2 1020.9 0.0
28/03:00am 13.9 11.4 8.3 69 2.8 N 11 11 6 6 1021.3 1021.0 0.0
28/02:30am 14.3 11.4 8.3 67 3.0 N 13 15 7 8 1021.4 1021.1 0.0
28/02:00am 15.4 11.7 8.0 61 3.7 N 17 17 9 9 1021.2 1020.9 0.0
28/01:30am 14.9 11.3 8.4 65 3.3 N 17 17 9 9 1021.4 1021.1 0.0
28/01:00am 14.3 11.4 8.3 67 3.0 N 13 15 7 8 1021.4 1021.1 0.0
28/12:30am 14.3 12.2 8.3 67 3.0 NW 9 11 5 6 1021.6 1021.3 0.0
28/12:00am 14.4 11.3 8.7 68 2.9 NE 15 19 8 10 1021.5 1021.2 0.0
 
Date/Time
EDT
Temp
°C
App
Temp
°C
Dew
Point
°C
Rel
Hum
%
Delta-T
°C
Wind Press
QNH
hPa
Press
MSL
hPa
Rain since
9am
mm
Dir  Spd
km/h
Gust
km/h
Spd
kts
Gust
kts
27/11:30pm 15.9 12.6 8.2 60 3.9 N 15 17 8 9 1021.6 1021.3 0.0
27/11:00pm 16.4 12.9 8.6 60 4.0 N 17 19 9 10 1021.8 1021.5 0.0
27/10:30pm 17.0 13.5 8.9 59 4.2 N 17 17 9 9 1022.0 1021.7 0.0
27/10:00pm 17.7 15.3 8.8 56 4.6 N 11 13 6 7 1022.1 1021.8 0.0
27/09:30pm 18.2 15.1 9.0 55 4.8 NNE 15 15 8 8 1022.2 1021.9 0.0
27/09:00pm 18.8 15.8 9.1 53 5.1 NNE 15 19 8 10 1022.0 1021.7 0.0
27/08:30pm 19.0 16.4 9.3 53 5.1 NNE 13 15 7 8 1021.9 1021.6 0.0
27/08:00pm 19.3 17.5 9.5 53 5.2 NNE 9 13 5 7 1021.7 1021.4 0.0
27/07:30pm 20.4 17.9 9.6 50 5.8 NE 13 17 7 9 1021.5 1021.2 0.0
27/07:00pm 21.8 19.4 10.0 47 6.4 NNE 13 17 7 9 1021.4 1021.1 0.0
27/06:30pm 24.1 21.4 8.9 38 8.2 NNE 13 17 7 9 1021.3 1021.0 0.0
27/06:00pm 25.9 23.1 8.5 33 9.4 NNE 13 17 7 9 1021.3 1021.0 0.0
27/05:30pm 25.3 22.0 7.9 33 9.3 NE 15 22 8 12 1021.4 1021.1 0.0
27/05:00pm 25.9 21.8 8.0 32 9.6 NNE 19 26 10 14 1021.6 1021.3 0.0
27/04:30pm 26.4 23.0 9.3 34 9.4 NE 17 20 9 11 1021.8 1021.5 0.0

Other formats

Comma delimited format used in spreadsheet applications
http://www.bom.gov.au/fwo/IDV60801/IDV60801.94866.axf

JavaScript Object Notation format (JSON) in row-major order
http://www.bom.gov.au/fwo/IDV60801/IDV60801.94866.json

Data quality

Most of these data are generated automatically and are frequently updated. Quality checks on data are not normally performed. It is possible for incorrect values to appear. Refer to information at About Latest Weather Observations and please check the disclaimer before using these data.